sensor_id;sensor_type;location;lat;lon;timestamp;P1;durP1;ratioP1;P2;durP2;ratioP2
68944;SDS011;55984;48.790;8.990;2023-10-31T00:00:24;1.73;;;1.33;;
68944;SDS011;55984;48.790;8.990;2023-10-31T00:02:50;1.60;;;1.27;;
68944;SDS011;55984;48.790;8.990;2023-10-31T00:05:16;1.50;;;1.30;;
68944;SDS011;55984;48.790;8.990;2023-10-31T00:07:42;1.57;;;1.20;;
68944;SDS011;55984;48.790;8.990;2023-10-31T00:10:08;1.37;;;1.17;;
68944;SDS011;55984;48.790;8.990;2023-10-31T00:12:34;1.77;;;1.40;;
68944;SDS011;55984;48.790;8.990;2023-10-31T00:15:00;1.60;;;1.40;;
68944;SDS011;55984;48.790;8.990;2023-10-31T00:17:26;1.50;;;1.30;;
68944;SDS011;55984;48.790;8.990;2023-10-31T00:19:52;1.73;;;1.37;;
68944;SDS011;55984;48.790;8.990;2023-10-31T00:22:18;3.43;;;1.20;;
68944;SDS011;55984;48.790;8.990;2023-10-31T00:24:45;1.70;;;1.40;;
68944;SDS011;55984;48.790;8.990;2023-10-31T00:27:11;1.50;;;1.30;;
68944;SDS011;55984;48.790;8.990;2023-10-31T00:29:37;2.00;;;1.60;;
68944;SDS011;55984;48.790;8.990;2023-10-31T00:32:03;1.60;;;1.30;;
68944;SDS011;55984;48.790;8.990;2023-10-31T00:34:29;2.03;;;1.30;;
68944;SDS011;55984;48.790;8.990;2023-10-31T00:36:55;1.60;;;1.30;;
68944;SDS011;55984;48.790;8.990;2023-10-31T00:39:20;1.63;;;1.40;;
68944;SDS011;55984;48.790;8.990;2023-10-31T00:41:47;1.80;;;1.40;;
68944;SDS011;55984;48.790;8.990;2023-10-31T00:44:13;1.77;;;1.40;;
68944;SDS011;55984;48.790;8.990;2023-10-31T00:46:39;1.80;;;1.30;;
68944;SDS011;55984;48.790;8.990;2023-10-31T00:49:05;2.07;;;1.37;;
68944;SDS011;55984;48.790;8.990;2023-10-31T00:51:31;1.87;;;1.50;;
68944;SDS011;55984;48.790;8.990;2023-10-31T00:53:58;3.30;;;1.40;;
68944;SDS011;55984;48.790;8.990;2023-10-31T00:56:25;1.70;;;1.20;;
68944;SDS011;55984;48.790;8.990;2023-10-31T00:58:51;1.70;;;1.43;;
68944;SDS011;55984;48.790;8.990;2023-10-31T01:01:17;4.03;;;1.30;;
68944;SDS011;55984;48.790;8.990;2023-10-31T01:03:43;1.73;;;1.40;;
68944;SDS011;55984;48.790;8.990;2023-10-31T01:06:08;1.70;;;1.20;;
68944;SDS011;55984;48.790;8.990;2023-10-31T01:08:34;1.97;;;1.40;;
68944;SDS011;55984;48.790;8.990;2023-10-31T01:11:00;1.30;;;1.10;;
68944;SDS011;55984;48.790;8.990;2023-10-31T01:13:26;3.10;;;1.50;;
68944;SDS011;55984;48.790;8.990;2023-10-31T01:15:52;1.70;;;1.30;;
68944;SDS011;55984;48.790;8.990;2023-10-31T01:18:18;4.50;;;1.40;;
68944;SDS011;55984;48.790;8.990;2023-10-31T01:20:44;1.80;;;1.30;;
68944;SDS011;55984;48.790;8.990;2023-10-31T01:23:10;1.70;;;1.43;;
68944;SDS011;55984;48.790;8.990;2023-10-31T01:25:36;2.00;;;1.40;;
68944;SDS011;55984;48.790;8.990;2023-10-31T01:28:02;1.70;;;1.30;;
68944;SDS011;55984;48.790;8.990;2023-10-31T01:30:28;1.70;;;1.50;;
68944;SDS011;55984;48.790;8.990;2023-10-31T01:32:54;2.40;;;1.40;;
68944;SDS011;55984;48.790;8.990;2023-10-31T01:35:20;1.90;;;1.40;;
68944;SDS011;55984;48.790;8.990;2023-10-31T01:37:46;1.90;;;1.40;;
68944;SDS011;55984;48.790;8.990;2023-10-31T01:40:13;1.67;;;1.47;;
68944;SDS011;55984;48.790;8.990;2023-10-31T01:42:39;1.90;;;1.50;;
68944;SDS011;55984;48.790;8.990;2023-10-31T01:45:05;2.00;;;1.57;;
68944;SDS011;55984;48.790;8.990;2023-10-31T01:47:32;2.70;;;1.60;;
68944;SDS011;55984;48.790;8.990;2023-10-31T02:05:40;1.70;;;1.50;;
68944;SDS011;55984;48.790;8.990;2023-10-31T02:08:06;2.13;;;1.53;;
68944;SDS011;55984;48.790;8.990;2023-10-31T02:10:33;1.60;;;1.30;;
68944;SDS011;55984;48.790;8.990;2023-10-31T02:13:09;2.07;;;1.60;;
68944;SDS011;55984;48.790;8.990;2023-10-31T02:15:45;1.57;;;1.30;;
68944;SDS011;55984;48.790;8.990;2023-10-31T02:18:11;1.70;;;1.40;;
68944;SDS011;55984;48.790;8.990;2023-10-31T02:20:37;1.97;;;1.60;;
68944;SDS011;55984;48.790;8.990;2023-10-31T02:23:03;2.67;;;1.60;;
68944;SDS011;55984;48.790;8.990;2023-10-31T02:25:29;1.70;;;1.40;;
68944;SDS011;55984;48.790;8.990;2023-10-31T02:27:56;2.17;;;1.40;;
68944;SDS011;55984;48.790;8.990;2023-10-31T02:30:22;3.50;;;1.33;;
68944;SDS011;55984;48.790;8.990;2023-10-31T02:32:49;2.47;;;1.50;;
68944;SDS011;55984;48.790;8.990;2023-10-31T02:35:15;1.83;;;1.50;;
68944;SDS011;55984;48.790;8.990;2023-10-31T02:37:43;2.43;;;1.43;;
68944;SDS011;55984;48.790;8.990;2023-10-31T02:40:10;2.10;;;1.50;;
68944;SDS011;55984;48.790;8.990;2023-10-31T02:42:36;1.73;;;1.47;;
68944;SDS011;55984;48.790;8.990;2023-10-31T02:45:02;1.80;;;1.40;;
68944;SDS011;55984;48.790;8.990;2023-10-31T02:47:31;1.97;;;1.57;;
68944;SDS011;55984;48.790;8.990;2023-10-31T02:49:57;2.50;;;1.40;;
68944;SDS011;55984;48.790;8.990;2023-10-31T02:52:23;2.27;;;1.50;;
68944;SDS011;55984;48.790;8.990;2023-10-31T02:54:50;1.73;;;1.40;;
68944;SDS011;55984;48.790;8.990;2023-10-31T02:57:16;1.80;;;1.47;;
68944;SDS011;55984;48.790;8.990;2023-10-31T02:59:42;1.50;;;1.30;;
68944;SDS011;55984;48.790;8.990;2023-10-31T03:02:08;1.83;;;1.40;;
68944;SDS011;55984;48.790;8.990;2023-10-31T03:04:36;2.47;;;1.73;;
68944;SDS011;55984;48.790;8.990;2023-10-31T03:07:02;2.20;;;1.37;;
68944;SDS011;55984;48.790;8.990;2023-10-31T03:09:28;1.80;;;1.57;;
68944;SDS011;55984;48.790;8.990;2023-10-31T03:11:55;1.83;;;1.50;;
68944;SDS011;55984;48.790;8.990;2023-10-31T03:14:22;14.43;;;1.47;;
68944;SDS011;55984;48.790;8.990;2023-10-31T03:16:48;3.70;;;1.60;;
68944;SDS011;55984;48.790;8.990;2023-10-31T03:19:18;1.50;;;1.30;;
68944;SDS011;55984;48.790;8.990;2023-10-31T03:21:43;1.70;;;1.40;;
68944;SDS011;55984;48.790;8.990;2023-10-31T03:24:09;1.77;;;1.40;;
68944;SDS011;55984;48.790;8.990;2023-10-31T03:26:35;1.90;;;1.37;;
68944;SDS011;55984;48.790;8.990;2023-10-31T03:29:01;1.87;;;1.40;;
68944;SDS011;55984;48.790;8.990;2023-10-31T03:31:27;1.90;;;1.50;;
68944;SDS011;55984;48.790;8.990;2023-10-31T03:33:53;3.20;;;1.40;;
68944;SDS011;55984;48.790;8.990;2023-10-31T03:36:19;1.60;;;1.40;;
68944;SDS011;55984;48.790;8.990;2023-10-31T03:38:45;1.97;;;1.50;;
68944;SDS011;55984;48.790;8.990;2023-10-31T03:41:11;1.90;;;1.40;;
68944;SDS011;55984;48.790;8.990;2023-10-31T03:43:38;2.20;;;1.60;;
68944;SDS011;55984;48.790;8.990;2023-10-31T03:46:04;5.73;;;1.60;;
68944;SDS011;55984;48.790;8.990;2023-10-31T03:48:30;1.87;;;1.50;;
68944;SDS011;55984;48.790;8.990;2023-10-31T03:50:56;2.33;;;1.53;;
68944;SDS011;55984;48.790;8.990;2023-10-31T03:53:22;2.50;;;1.47;;
68944;SDS011;55984;48.790;8.990;2023-10-31T03:55:48;2.40;;;1.50;;
68944;SDS011;55984;48.790;8.990;2023-10-31T03:58:14;2.00;;;1.30;;
68944;SDS011;55984;48.790;8.990;2023-10-31T04:00:40;1.70;;;1.53;;
68944;SDS011;55984;48.790;8.990;2023-10-31T04:03:06;2.20;;;1.40;;
68944;SDS011;55984;48.790;8.990;2023-10-31T04:05:33;6.23;;;1.77;;
68944;SDS011;55984;48.790;8.990;2023-10-31T04:07:59;2.60;;;1.60;;
68944;SDS011;55984;48.790;8.990;2023-10-31T04:10:25;2.50;;;1.67;;
68944;SDS011;55984;48.790;8.990;2023-10-31T04:12:51;2.90;;;1.90;;
68944;SDS011;55984;48.790;8.990;2023-10-31T04:15:17;1.90;;;1.47;;
68944;SDS011;55984;48.790;8.990;2023-10-31T04:17:43;2.30;;;1.50;;
68944;SDS011;55984;48.790;8.990;2023-10-31T04:20:09;1.90;;;1.30;;
68944;SDS011;55984;48.790;8.990;2023-10-31T04:22:38;1.80;;;1.40;;
68944;SDS011;55984;48.790;8.990;2023-10-31T04:25:04;1.90;;;1.50;;
68944;SDS011;55984;48.790;8.990;2023-10-31T04:27:30;4.40;;;1.50;;
68944;SDS011;55984;48.790;8.990;2023-10-31T04:29:56;1.80;;;1.47;;
68944;SDS011;55984;48.790;8.990;2023-10-31T04:32:23;2.30;;;1.60;;
68944;SDS011;55984;48.790;8.990;2023-10-31T04:34:49;1.50;;;1.30;;
68944;SDS011;55984;48.790;8.990;2023-10-31T04:37:15;1.60;;;1.30;;
68944;SDS011;55984;48.790;8.990;2023-10-31T04:39:41;2.07;;;1.47;;
68944;SDS011;55984;48.790;8.990;2023-10-31T04:42:06;1.80;;;1.40;;
68944;SDS011;55984;48.790;8.990;2023-10-31T04:44:32;1.60;;;1.30;;
68944;SDS011;55984;48.790;8.990;2023-10-31T04:46:58;3.10;;;1.70;;
68944;SDS011;55984;48.790;8.990;2023-10-31T04:49:24;2.03;;;1.50;;
68944;SDS011;55984;48.790;8.990;2023-10-31T04:51:50;3.30;;;1.40;;
68944;SDS011;55984;48.790;8.990;2023-10-31T04:54:16;1.90;;;1.50;;
68944;SDS011;55984;48.790;8.990;2023-10-31T04:56:42;2.90;;;1.60;;
68944;SDS011;55984;48.790;8.990;2023-10-31T04:59:08;2.90;;;1.40;;
68944;SDS011;55984;48.790;8.990;2023-10-31T05:01:34;1.53;;;1.23;;
68944;SDS011;55984;48.790;8.990;2023-10-31T05:04:00;3.07;;;1.40;;
68944;SDS011;55984;48.790;8.990;2023-10-31T05:06:26;2.40;;;1.40;;
68944;SDS011;55984;48.790;8.990;2023-10-31T05:08:52;2.57;;;1.60;;
68944;SDS011;55984;48.790;8.990;2023-10-31T05:11:21;1.70;;;1.40;;
68944;SDS011;55984;48.790;8.990;2023-10-31T05:13:47;2.13;;;1.57;;
68944;SDS011;55984;48.790;8.990;2023-10-31T05:16:13;2.27;;;1.60;;
68944;SDS011;55984;48.790;8.990;2023-10-31T05:18:39;2.07;;;1.60;;
68944;SDS011;55984;48.790;8.990;2023-10-31T05:21:05;1.50;;;1.33;;
68944;SDS011;55984;48.790;8.990;2023-10-31T05:23:31;1.90;;;1.40;;
68944;SDS011;55984;48.790;8.990;2023-10-31T05:25:57;1.80;;;1.50;;
68944;SDS011;55984;48.790;8.990;2023-10-31T05:28:23;2.00;;;1.33;;
68944;SDS011;55984;48.790;8.990;2023-10-31T05:30:49;1.40;;;1.30;;
68944;SDS011;55984;48.790;8.990;2023-10-31T05:33:15;2.00;;;1.57;;
68944;SDS011;55984;48.790;8.990;2023-10-31T05:35:41;1.80;;;1.30;;
68944;SDS011;55984;48.790;8.990;2023-10-31T05:38:08;2.00;;;1.40;;
68944;SDS011;55984;48.790;8.990;2023-10-31T05:40:34;1.97;;;1.30;;
68944;SDS011;55984;48.790;8.990;2023-10-31T05:43:00;6.03;;;1.50;;
68944;SDS011;55984;48.790;8.990;2023-10-31T10:18:29;7.00;;;1.87;;
68944;SDS011;55984;48.790;8.990;2023-10-31T10:21:00;2.23;;;1.60;;
68944;SDS011;55984;48.790;8.990;2023-10-31T10:23:28;3.70;;;1.43;;
68944;SDS011;55984;48.790;8.990;2023-10-31T10:25:55;2.30;;;1.60;;
68944;SDS011;55984;48.790;8.990;2023-10-31T10:28:22;2.37;;;1.67;;
68944;SDS011;55984;48.790;8.990;2023-10-31T10:30:52;3.43;;;1.63;;
68944;SDS011;55984;48.790;8.990;2023-10-31T10:33:21;3.00;;;1.50;;
68944;SDS011;55984;48.790;8.990;2023-10-31T10:35:48;8.60;;;1.50;;
68944;SDS011;55984;48.790;8.990;2023-10-31T10:38:15;1.60;;;1.40;;
68944;SDS011;55984;48.790;8.990;2023-10-31T10:40:43;1.60;;;1.30;;
68944;SDS011;55984;48.790;8.990;2023-10-31T10:43:32;1.90;;;1.40;;
68944;SDS011;55984;48.790;8.990;2023-10-31T10:45:59;1.83;;;1.40;;
68944;SDS011;55984;48.790;8.990;2023-10-31T10:48:27;1.37;;;1.20;;
68944;SDS011;55984;48.790;8.990;2023-10-31T10:50:59;4.10;;;1.43;;
68944;SDS011;55984;48.790;8.990;2023-10-31T10:53:50;1.90;;;1.27;;
68944;SDS011;55984;48.790;8.990;2023-10-31T10:56:22;3.10;;;1.60;;
68944;SDS011;55984;48.790;8.990;2023-10-31T10:58:55;3.00;;;1.40;;
68944;SDS011;55984;48.790;8.990;2023-10-31T11:01:28;1.67;;;1.30;;
68944;SDS011;55984;48.790;8.990;2023-10-31T11:03:57;1.90;;;1.40;;
68944;SDS011;55984;48.790;8.990;2023-10-31T11:06:24;2.00;;;1.33;;
68944;SDS011;55984;48.790;8.990;2023-10-31T11:08:51;3.33;;;1.50;;
68944;SDS011;55984;48.790;8.990;2023-10-31T11:11:19;3.60;;;1.30;;
68944;SDS011;55984;48.790;8.990;2023-10-31T11:13:46;1.90;;;1.30;;
68944;SDS011;55984;48.790;8.990;2023-10-31T11:16:13;5.23;;;1.50;;
68944;SDS011;55984;48.790;8.990;2023-10-31T11:18:44;2.27;;;1.30;;
68944;SDS011;55984;48.790;8.990;2023-10-31T11:21:15;2.60;;;1.30;;
68944;SDS011;55984;48.790;8.990;2023-10-31T11:23:44;2.37;;;1.17;;
68944;SDS011;55984;48.790;8.990;2023-10-31T11:26:10;5.37;;;1.40;;
68944;SDS011;55984;48.790;8.990;2023-10-31T11:28:36;2.10;;;1.40;;
68944;SDS011;55984;48.790;8.990;2023-10-31T11:31:02;2.33;;;1.27;;
68944;SDS011;55984;48.790;8.990;2023-10-31T11:33:29;1.50;;;1.30;;
68944;SDS011;55984;48.790;8.990;2023-10-31T11:36:04;3.83;;;1.40;;
68944;SDS011;55984;48.790;8.990;2023-10-31T11:38:35;1.63;;;1.33;;
68944;SDS011;55984;48.790;8.990;2023-10-31T11:41:04;2.37;;;1.50;;
68944;SDS011;55984;48.790;8.990;2023-10-31T11:46:17;1.30;;;1.10;;
68944;SDS011;55984;48.790;8.990;2023-10-31T11:48:46;1.50;;;1.20;;
68944;SDS011;55984;48.790;8.990;2023-10-31T11:51:13;2.57;;;1.20;;
68944;SDS011;55984;48.790;8.990;2023-10-31T11:53:39;1.60;;;1.30;;
68944;SDS011;55984;48.790;8.990;2023-10-31T11:56:05;1.40;;;1.17;;
68944;SDS011;55984;48.790;8.990;2023-10-31T11:58:35;1.40;;;1.07;;
68944;SDS011;55984;48.790;8.990;2023-10-31T12:01:01;1.43;;;1.13;;
68944;SDS011;55984;48.790;8.990;2023-10-31T12:03:36;1.83;;;1.20;;
68944;SDS011;55984;48.790;8.990;2023-10-31T12:06:22;2.53;;;1.47;;
68944;SDS011;55984;48.790;8.990;2023-10-31T12:08:48;2.03;;;1.27;;
68944;SDS011;55984;48.790;8.990;2023-10-31T12:14:01;2.17;;;1.27;;
68944;SDS011;55984;48.790;8.990;2023-10-31T12:16:32;1.77;;;1.17;;
68944;SDS011;55984;48.790;8.990;2023-10-31T12:19:00;2.13;;;1.30;;
68944;SDS011;55984;48.790;8.990;2023-10-31T12:21:33;1.73;;;1.30;;
68944;SDS011;55984;48.790;8.990;2023-10-31T12:24:06;1.70;;;1.30;;
68944;SDS011;55984;48.790;8.990;2023-10-31T12:26:34;1.50;;;1.30;;
68944;SDS011;55984;48.790;8.990;2023-10-31T12:34:18;1.37;;;1.10;;
68944;SDS011;55984;48.790;8.990;2023-10-31T12:36:47;2.50;;;1.20;;
68944;SDS011;55984;48.790;8.990;2023-10-31T12:39:13;1.40;;;1.20;;
68944;SDS011;55984;48.790;8.990;2023-10-31T12:41:41;2.53;;;1.20;;
68944;SDS011;55984;48.790;8.990;2023-10-31T12:44:09;1.77;;;1.50;;
68944;SDS011;55984;48.790;8.990;2023-10-31T12:46:41;1.40;;;1.10;;
68944;SDS011;55984;48.790;8.990;2023-10-31T12:49:19;2.23;;;1.30;;
68944;SDS011;55984;48.790;8.990;2023-10-31T12:54:32;2.63;;;1.30;;
68944;SDS011;55984;48.790;8.990;2023-10-31T12:57:02;2.40;;;1.30;;
68944;SDS011;55984;48.790;8.990;2023-10-31T12:59:30;1.60;;;1.20;;
68944;SDS011;55984;48.790;8.990;2023-10-31T13:02:01;1.40;;;1.20;;
68944;SDS011;55984;48.790;8.990;2023-10-31T13:04:29;2.80;;;1.10;;
68944;SDS011;55984;48.790;8.990;2023-10-31T13:09:22;1.77;;;1.10;;
68944;SDS011;55984;48.790;8.990;2023-10-31T13:11:48;2.10;;;1.30;;
68944;SDS011;55984;48.790;8.990;2023-10-31T13:14:14;1.43;;;1.20;;
68944;SDS011;55984;48.790;8.990;2023-10-31T13:16:40;1.40;;;1.20;;
68944;SDS011;55984;48.790;8.990;2023-10-31T13:19:06;1.70;;;1.23;;
68944;SDS011;55984;48.790;8.990;2023-10-31T13:21:35;1.90;;;1.30;;
68944;SDS011;55984;48.790;8.990;2023-10-31T13:24:05;1.50;;;1.30;;
68944;SDS011;55984;48.790;8.990;2023-10-31T13:26:33;1.93;;;1.20;;
68944;SDS011;55984;48.790;8.990;2023-10-31T13:28:59;1.63;;;1.30;;
68944;SDS011;55984;48.790;8.990;2023-10-31T13:31:25;2.53;;;1.30;;
68944;SDS011;55984;48.790;8.990;2023-10-31T13:33:51;2.00;;;1.40;;
68944;SDS011;55984;48.790;8.990;2023-10-31T13:36:17;3.30;;;1.17;;
68944;SDS011;55984;48.790;8.990;2023-10-31T13:38:43;1.30;;;1.20;;
68944;SDS011;55984;48.790;8.990;2023-10-31T13:41:09;1.70;;;1.20;;
68944;SDS011;55984;48.790;8.990;2023-10-31T13:43:36;3.03;;;1.33;;
68944;SDS011;55984;48.790;8.990;2023-10-31T13:46:02;1.67;;;1.20;;
68944;SDS011;55984;48.790;8.990;2023-10-31T13:48:29;1.40;;;1.20;;
68944;SDS011;55984;48.790;8.990;2023-10-31T13:50:55;5.20;;;1.30;;
68944;SDS011;55984;48.790;8.990;2023-10-31T13:53:20;1.80;;;1.30;;
68944;SDS011;55984;48.790;8.990;2023-10-31T13:55:47;1.70;;;1.40;;
68944;SDS011;55984;48.790;8.990;2023-10-31T13:58:13;1.40;;;1.30;;
68944;SDS011;55984;48.790;8.990;2023-10-31T14:00:40;2.80;;;1.20;;
68944;SDS011;55984;48.790;8.990;2023-10-31T14:19:55;1.47;;;1.30;;
68944;SDS011;55984;48.790;8.990;2023-10-31T14:22:21;1.50;;;1.20;;
68944;SDS011;55984;48.790;8.990;2023-10-31T14:24:47;3.20;;;1.40;;
68944;SDS011;55984;48.790;8.990;2023-10-31T14:27:13;3.40;;;1.40;;
68944;SDS011;55984;48.790;8.990;2023-10-31T14:29:40;2.43;;;1.50;;
68944;SDS011;55984;48.790;8.990;2023-10-31T14:32:08;2.17;;;1.20;;
68944;SDS011;55984;48.790;8.990;2023-10-31T14:34:35;1.70;;;1.40;;
68944;SDS011;55984;48.790;8.990;2023-10-31T14:37:01;2.10;;;1.40;;
68944;SDS011;55984;48.790;8.990;2023-10-31T14:39:27;2.20;;;1.70;;
68944;SDS011;55984;48.790;8.990;2023-10-31T14:41:54;2.77;;;1.50;;
68944;SDS011;55984;48.790;8.990;2023-10-31T14:44:20;2.13;;;1.50;;
68944;SDS011;55984;48.790;8.990;2023-10-31T14:46:46;3.67;;;1.70;;
68944;SDS011;55984;48.790;8.990;2023-10-31T14:49:12;2.97;;;1.60;;
68944;SDS011;55984;48.790;8.990;2023-10-31T14:51:38;1.60;;;1.30;;
68944;SDS011;55984;48.790;8.990;2023-10-31T14:54:06;2.37;;;1.50;;
68944;SDS011;55984;48.790;8.990;2023-10-31T14:56:33;2.50;;;1.50;;
68944;SDS011;55984;48.790;8.990;2023-10-31T14:59:00;2.60;;;1.40;;
68944;SDS011;55984;48.790;8.990;2023-10-31T15:01:27;1.97;;;1.50;;
68944;SDS011;55984;48.790;8.990;2023-10-31T15:03:54;2.10;;;1.43;;
68944;SDS011;55984;48.790;8.990;2023-10-31T15:06:23;1.60;;;1.40;;
68944;SDS011;55984;48.790;8.990;2023-10-31T15:08:49;2.23;;;1.50;;
68944;SDS011;55984;48.790;8.990;2023-10-31T15:11:17;2.67;;;1.47;;
68944;SDS011;55984;48.790;8.990;2023-10-31T15:13:43;2.73;;;1.50;;
68944;SDS011;55984;48.790;8.990;2023-10-31T15:16:09;1.80;;;1.40;;
68944;SDS011;55984;48.790;8.990;2023-10-31T15:18:35;3.00;;;1.47;;
68944;SDS011;55984;48.790;8.990;2023-10-31T15:21:01;1.50;;;1.30;;
68944;SDS011;55984;48.790;8.990;2023-10-31T15:23:28;1.73;;;1.30;;
68944;SDS011;55984;48.790;8.990;2023-10-31T15:25:55;4.60;;;1.30;;
68944;SDS011;55984;48.790;8.990;2023-10-31T15:28:25;2.80;;;1.77;;
68944;SDS011;55984;48.790;8.990;2023-10-31T15:30:51;2.00;;;1.50;;
68944;SDS011;55984;48.790;8.990;2023-10-31T15:33:17;3.50;;;1.80;;
68944;SDS011;55984;48.790;8.990;2023-10-31T15:35:44;3.53;;;1.53;;
68944;SDS011;55984;48.790;8.990;2023-10-31T15:38:10;1.90;;;1.20;;
68944;SDS011;55984;48.790;8.990;2023-10-31T15:40:36;1.70;;;1.50;;
68944;SDS011;55984;48.790;8.990;2023-10-31T15:43:02;2.13;;;1.47;;
68944;SDS011;55984;48.790;8.990;2023-10-31T15:45:28;1.47;;;1.37;;
68944;SDS011;55984;48.790;8.990;2023-10-31T15:47:54;2.23;;;1.57;;
68944;SDS011;55984;48.790;8.990;2023-10-31T15:50:20;2.13;;;1.30;;
68944;SDS011;55984;48.790;8.990;2023-10-31T15:52:46;1.93;;;1.30;;
68944;SDS011;55984;48.790;8.990;2023-10-31T15:55:13;2.03;;;1.40;;
68944;SDS011;55984;48.790;8.990;2023-10-31T15:57:39;4.17;;;2.13;;
68944;SDS011;55984;48.790;8.990;2023-10-31T16:00:05;2.53;;;1.57;;
68944;SDS011;55984;48.790;8.990;2023-10-31T16:02:33;2.43;;;1.47;;
68944;SDS011;55984;48.790;8.990;2023-10-31T16:04:59;1.50;;;1.30;;
68944;SDS011;55984;48.790;8.990;2023-10-31T16:07:25;2.33;;;1.60;;
68944;SDS011;55984;48.790;8.990;2023-10-31T16:09:51;2.23;;;1.40;;
68944;SDS011;55984;48.790;8.990;2023-10-31T16:12:18;1.60;;;1.30;;
68944;SDS011;55984;48.790;8.990;2023-10-31T16:14:44;1.70;;;1.40;;
68944;SDS011;55984;48.790;8.990;2023-10-31T16:17:10;1.93;;;1.53;;
68944;SDS011;55984;48.790;8.990;2023-10-31T16:19:39;2.13;;;1.60;;
68944;SDS011;55984;48.790;8.990;2023-10-31T16:22:04;1.70;;;1.30;;
68944;SDS011;55984;48.790;8.990;2023-10-31T16:24:31;1.77;;;1.50;;
68944;SDS011;55984;48.790;8.990;2023-10-31T16:26:57;2.00;;;1.50;;
68944;SDS011;55984;48.790;8.990;2023-10-31T16:29:23;1.40;;;1.30;;
68944;SDS011;55984;48.790;8.990;2023-10-31T16:31:49;1.50;;;1.30;;
68944;SDS011;55984;48.790;8.990;2023-10-31T16:34:15;1.50;;;1.30;;
68944;SDS011;55984;48.790;8.990;2023-10-31T16:36:42;1.70;;;1.40;;
68944;SDS011;55984;48.790;8.990;2023-10-31T16:39:09;2.13;;;1.40;;
68944;SDS011;55984;48.790;8.990;2023-10-31T16:41:35;1.60;;;1.40;;
68944;SDS011;55984;48.790;8.990;2023-10-31T16:44:01;3.50;;;2.20;;
68944;SDS011;55984;48.790;8.990;2023-10-31T16:46:27;3.40;;;2.07;;
68944;SDS011;55984;48.790;8.990;2023-10-31T16:48:53;5.70;;;3.87;;
68944;SDS011;55984;48.790;8.990;2023-10-31T16:53:50;5.93;;;3.83;;
68944;SDS011;55984;48.790;8.990;2023-10-31T16:56:16;10.10;;;5.23;;
68944;SDS011;55984;48.790;8.990;2023-10-31T16:58:43;9.97;;;5.40;;
68944;SDS011;55984;48.790;8.990;2023-10-31T17:01:11;3.30;;;2.30;;
68944;SDS011;55984;48.790;8.990;2023-10-31T17:03:38;2.47;;;1.90;;
68944;SDS011;55984;48.790;8.990;2023-10-31T17:06:04;3.30;;;1.87;;
68944;SDS011;55984;48.790;8.990;2023-10-31T17:08:31;2.30;;;1.83;;
68944;SDS011;55984;48.790;8.990;2023-10-31T17:10:57;2.47;;;2.00;;
68944;SDS011;55984;48.790;8.990;2023-10-31T17:13:23;6.20;;;4.13;;
68944;SDS011;55984;48.790;8.990;2023-10-31T17:15:51;5.43;;;3.40;;
68944;SDS011;55984;48.790;8.990;2023-10-31T17:18:16;5.53;;;2.73;;
68944;SDS011;55984;48.790;8.990;2023-10-31T17:20:43;1.90;;;1.73;;
68944;SDS011;55984;48.790;8.990;2023-10-31T17:23:10;2.63;;;2.10;;
68944;SDS011;55984;48.790;8.990;2023-10-31T17:25:38;5.40;;;4.07;;
68944;SDS011;55984;48.790;8.990;2023-10-31T17:28:04;6.43;;;3.10;;
68944;SDS011;55984;48.790;8.990;2023-10-31T17:30:30;7.47;;;3.43;;
68944;SDS011;55984;48.790;8.990;2023-10-31T17:32:56;3.80;;;2.53;;
68944;SDS011;55984;48.790;8.990;2023-10-31T17:35:22;3.97;;;2.27;;
68944;SDS011;55984;48.790;8.990;2023-10-31T17:37:47;17.13;;;8.57;;
68944;SDS011;55984;48.790;8.990;2023-10-31T17:40:13;17.83;;;9.40;;
68944;SDS011;55984;48.790;8.990;2023-10-31T17:42:39;6.83;;;3.13;;
68944;SDS011;55984;48.790;8.990;2023-10-31T17:45:05;15.60;;;7.33;;
68944;SDS011;55984;48.790;8.990;2023-10-31T17:47:32;6.33;;;4.30;;
68944;SDS011;55984;48.790;8.990;2023-10-31T19:01:26;4.43;;;2.60;;
68944;SDS011;55984;48.790;8.990;2023-10-31T19:03:55;9.70;;;6.03;;
68944;SDS011;55984;48.790;8.990;2023-10-31T19:06:25;3.30;;;2.10;;
68944;SDS011;55984;48.790;8.990;2023-10-31T19:08:51;4.10;;;2.50;;
68944;SDS011;55984;48.790;8.990;2023-10-31T19:11:18;4.80;;;3.10;;
68944;SDS011;55984;48.790;8.990;2023-10-31T19:13:44;4.80;;;2.70;;
68944;SDS011;55984;48.790;8.990;2023-10-31T19:16:10;8.20;;;4.03;;
68944;SDS011;55984;48.790;8.990;2023-10-31T19:18:36;6.47;;;3.30;;
68944;SDS011;55984;48.790;8.990;2023-10-31T19:21:02;2.73;;;1.83;;
68944;SDS011;55984;48.790;8.990;2023-10-31T19:23:28;3.47;;;2.17;;
68944;SDS011;55984;48.790;8.990;2023-10-31T19:25:54;2.60;;;1.80;;
68944;SDS011;55984;48.790;8.990;2023-10-31T19:28:20;3.10;;;2.00;;
68944;SDS011;55984;48.790;8.990;2023-10-31T19:30:47;3.57;;;2.10;;
68944;SDS011;55984;48.790;8.990;2023-10-31T19:33:13;3.87;;;2.40;;
68944;SDS011;55984;48.790;8.990;2023-10-31T19:35:39;2.97;;;2.00;;
68944;SDS011;55984;48.790;8.990;2023-10-31T19:38:05;7.00;;;2.00;;
68944;SDS011;55984;48.790;8.990;2023-10-31T19:40:31;3.23;;;2.27;;
68944;SDS011;55984;48.790;8.990;2023-10-31T19:42:57;2.20;;;1.80;;
68944;SDS011;55984;48.790;8.990;2023-10-31T19:45:24;9.30;;;5.30;;
68944;SDS011;55984;48.790;8.990;2023-10-31T19:47:50;2.70;;;2.03;;
68944;SDS011;55984;48.790;8.990;2023-10-31T19:50:16;7.70;;;4.63;;
68944;SDS011;55984;48.790;8.990;2023-10-31T19:52:42;6.90;;;4.90;;
68944;SDS011;55984;48.790;8.990;2023-10-31T19:55:08;4.80;;;2.93;;
68944;SDS011;55984;48.790;8.990;2023-10-31T19:57:34;11.87;;;5.80;;
68944;SDS011;55984;48.790;8.990;2023-10-31T20:00:00;5.77;;;4.00;;
68944;SDS011;55984;48.790;8.990;2023-10-31T20:02:26;7.17;;;4.23;;
68944;SDS011;55984;48.790;8.990;2023-10-31T20:04:52;4.80;;;3.17;;
68944;SDS011;55984;48.790;8.990;2023-10-31T20:07:18;3.43;;;2.73;;
68944;SDS011;55984;48.790;8.990;2023-10-31T20:09:43;1.87;;;1.70;;
68944;SDS011;55984;48.790;8.990;2023-10-31T20:12:10;4.23;;;2.27;;
68944;SDS011;55984;48.790;8.990;2023-10-31T20:14:36;3.87;;;2.40;;
68944;SDS011;55984;48.790;8.990;2023-10-31T20:17:02;4.00;;;2.20;;
68944;SDS011;55984;48.790;8.990;2023-10-31T20:19:28;2.87;;;1.90;;
68944;SDS011;55984;48.790;8.990;2023-10-31T20:21:54;4.10;;;2.70;;
68944;SDS011;55984;48.790;8.990;2023-10-31T20:24:20;2.43;;;2.00;;
68944;SDS011;55984;48.790;8.990;2023-10-31T20:26:49;2.90;;;2.00;;
68944;SDS011;55984;48.790;8.990;2023-10-31T20:29:16;2.90;;;2.17;;
68944;SDS011;55984;48.790;8.990;2023-10-31T20:31:42;3.03;;;2.20;;
68944;SDS011;55984;48.790;8.990;2023-10-31T20:34:08;5.70;;;2.30;;
68944;SDS011;55984;48.790;8.990;2023-10-31T20:36:34;5.53;;;3.33;;
68944;SDS011;55984;48.790;8.990;2023-10-31T20:39:02;4.30;;;2.60;;
68944;SDS011;55984;48.790;8.990;2023-10-31T20:41:28;4.10;;;2.97;;
68944;SDS011;55984;48.790;8.990;2023-10-31T20:43:54;4.40;;;2.00;;
68944;SDS011;55984;48.790;8.990;2023-10-31T20:46:22;3.50;;;1.93;;
68944;SDS011;55984;48.790;8.990;2023-10-31T20:48:48;6.37;;;3.40;;
68944;SDS011;55984;48.790;8.990;2023-10-31T20:51:14;3.63;;;2.50;;
68944;SDS011;55984;48.790;8.990;2023-10-31T20:53:40;3.60;;;2.17;;
68944;SDS011;55984;48.790;8.990;2023-10-31T20:56:06;3.87;;;2.63;;
68944;SDS011;55984;48.790;8.990;2023-10-31T20:58:35;4.30;;;2.90;;
68944;SDS011;55984;48.790;8.990;2023-10-31T21:01:01;5.07;;;3.00;;
68944;SDS011;55984;48.790;8.990;2023-10-31T21:03:27;5.87;;;3.37;;
68944;SDS011;55984;48.790;8.990;2023-10-31T21:05:54;5.03;;;2.50;;
68944;SDS011;55984;48.790;8.990;2023-10-31T21:08:20;3.90;;;2.27;;
68944;SDS011;55984;48.790;8.990;2023-10-31T21:10:46;5.83;;;2.63;;
68944;SDS011;55984;48.790;8.990;2023-10-31T21:13:12;4.47;;;2.70;;
68944;SDS011;55984;48.790;8.990;2023-10-31T21:15:38;5.60;;;3.10;;
68944;SDS011;55984;48.790;8.990;2023-10-31T21:18:04;3.87;;;2.50;;
68944;SDS011;55984;48.790;8.990;2023-10-31T21:20:30;3.67;;;2.40;;